createdAt,value
2017-05-10T00:00:16.102Z,0
2017-05-10T00:01:16.374Z,0
2017-05-10T00:02:16.125Z,0
2017-05-10T00:03:16.071Z,0
2017-05-10T00:04:16.078Z,0
2017-05-10T00:05:16.508Z,0
2017-05-10T00:06:15.781Z,0
2017-05-10T00:07:16.410Z,0
2017-05-10T00:08:16.426Z,0
2017-05-10T00:09:16.112Z,0
2017-05-10T00:10:16.167Z,0
2017-05-10T00:11:16.449Z,0
2017-05-10T00:12:15.818Z,0
2017-05-10T00:13:16.135Z,0
2017-05-10T00:14:16.139Z,0
2017-05-10T00:15:16.454Z,0
2017-05-10T00:16:16.462Z,0
2017-05-10T00:17:16.155Z,0
2017-05-10T00:18:16.478Z,0
2017-05-10T00:19:16.170Z,0
2017-05-10T00:20:16.534Z,0
2017-05-10T00:21:16.221Z,0
2017-05-10T00:22:16.501Z,0
2017-05-10T00:23:15.884Z,0
2017-05-10T00:24:16.197Z,0
2017-05-10T00:25:16.511Z,0
2017-05-10T00:26:16.214Z,0
2017-05-10T00:27:16.633Z,0
2017-05-10T00:28:16.583Z,0
2017-05-10T00:29:16.509Z,0
2017-05-10T00:30:16.548Z,0
2017-05-10T00:31:16.552Z,0
2017-05-10T00:32:16.560Z,0
2017-05-10T00:33:16.574Z,0
2017-05-10T00:34:16.316Z,0
2017-05-10T00:35:16.572Z,0
2017-05-10T00:36:16.375Z,0
2017-05-10T00:37:16.346Z,0
2017-05-10T00:38:16.409Z,0
2017-05-10T00:39:16.293Z,0
2017-05-10T00:40:16.610Z,0
2017-05-10T00:41:16.304Z,0
2017-05-10T00:42:16.620Z,0
2017-05-10T00:43:16.631Z,0
2017-05-10T00:44:16.013Z,0
2017-05-10T00:45:16.636Z,0
2017-05-10T00:46:16.386Z,0
2017-05-10T00:47:16.389Z,0
2017-05-10T00:48:16.401Z,0
2017-05-10T00:49:16.704Z,0
2017-05-10T00:50:15.735Z,0
2017-05-10T00:51:16.407Z,0
2017-05-10T00:52:16.679Z,0
2017-05-10T00:53:16.426Z,0
2017-05-10T00:54:16.122Z,0
2017-05-10T00:55:16.697Z,0
2017-05-10T00:56:16.702Z,0
2017-05-10T00:57:16.460Z,0
2017-05-10T00:58:16.721Z,0
2017-05-10T00:59:16.157Z,0
2017-05-10T01:00:16.420Z,0
2017-05-10T01:01:16.422Z,0
2017-05-10T01:02:16.149Z,0
2017-05-10T01:03:16.541Z,0
2017-05-10T01:04:16.757Z,0
2017-05-10T01:05:16.447Z,0
2017-05-10T01:06:16.764Z,0
2017-05-10T01:07:16.464Z,0
2017-05-10T01:08:16.521Z,0
2017-05-10T01:09:16.262Z,0
2017-05-10T01:10:16.478Z,0
2017-05-10T01:11:16.483Z,0
2017-05-10T01:12:16.227Z,0
2017-05-10T01:13:16.234Z,0
2017-05-10T01:14:16.863Z,0
2017-05-10T01:15:16.603Z,0
2017-05-10T01:16:16.207Z,0
2017-05-10T01:17:16.565Z,0
2017-05-10T01:18:16.574Z,0
2017-05-10T01:19:16.575Z,0
2017-05-10T01:20:16.586Z,0
2017-05-10T01:21:16.855Z,0
2017-05-10T01:22:16.549Z,0
2017-05-10T01:23:16.871Z,0
2017-05-10T01:24:16.261Z,0
2017-05-10T01:25:16.926Z,0
2017-05-10T01:26:16.931Z,0
2017-05-10T01:27:16.945Z,0
2017-05-10T01:28:16.587Z,0
2017-05-10T01:29:16.600Z,0
2017-05-10T01:30:16.025Z,0
2017-05-10T01:31:16.921Z,0
2017-05-10T01:32:16.661Z,0
2017-05-10T01:33:16.927Z,0
2017-05-10T01:34:16.938Z,0
2017-05-10T01:35:16.936Z,0
2017-05-10T01:36:16.635Z,0
2017-05-10T01:37:17.000Z,0
2017-05-10T01:38:17.008Z,0
2017-05-10T01:39:16.652Z,0
2017-05-10T01:40:45.805Z,0
2017-05-10T01:41:16.667Z,0
2017-05-10T01:42:16.671Z,0
2017-05-10T01:43:16.721Z,0
2017-05-10T01:44:17.048Z,0
2017-05-10T01:45:31.262Z,0
2017-05-10T01:46:16.694Z,0
2017-05-10T01:47:16.703Z,0
2017-05-10T01:48:17.068Z,0
2017-05-10T01:49:16.714Z,0
2017-05-10T01:50:16.488Z,0
2017-05-10T01:51:16.417Z,0
2017-05-10T01:52:16.415Z,0
2017-05-10T01:53:17.095Z,0
2017-05-10T01:54:16.486Z,0
2017-05-10T01:55:16.438Z,0
2017-05-10T01:56:16.752Z,0
2017-05-10T01:57:17.065Z,0
2017-05-10T01:58:17.080Z,0
2017-05-10T01:59:16.835Z,0
2017-05-10T02:00:16.463Z,0
2017-05-10T02:01:16.834Z,0
2017-05-10T02:02:17.104Z,0
2017-05-10T02:03:16.795Z,0
2017-05-10T02:04:16.804Z,0
2017-05-10T02:05:17.120Z,0
2017-05-10T02:06:17.172Z,0
2017-05-10T02:07:17.231Z,0
2017-05-10T02:08:16.873Z,0
2017-05-10T02:09:16.521Z,0
2017-05-10T02:10:16.885Z,0
2017-05-10T02:11:17.210Z,0
2017-05-10T02:12:17.160Z,0
2017-05-10T02:13:16.858Z,0
2017-05-10T02:14:17.170Z,0
2017-05-10T02:15:16.925Z,0
2017-05-10T02:16:16.924Z,0
2017-05-10T02:17:16.882Z,0
2017-05-10T02:18:17.249Z,0
2017-05-10T02:19:16.680Z,0
2017-05-10T02:20:17.202Z,0
2017-05-10T02:21:17.218Z,0
2017-05-10T02:22:17.216Z,0
2017-05-10T02:23:16.656Z,0
2017-05-10T02:24:16.971Z,0
2017-05-10T02:25:16.929Z,0
2017-05-10T02:26:16.922Z,0
2017-05-10T02:27:17.546Z,0
2017-05-10T02:28:16.951Z,0
2017-05-10T02:29:17.262Z,0
2017-05-10T02:30:17.416Z,0
2017-05-10T02:31:16.960Z,0
2017-05-10T02:32:16.708Z,0
2017-05-10T02:33:16.975Z,0
2017-05-10T02:34:17.389Z,0
2017-05-10T02:35:16.988Z,0
2017-05-10T02:36:17.355Z,0
2017-05-10T02:37:17.098Z,0
2017-05-10T02:38:17.310Z,0
2017-05-10T02:39:17.007Z,0
2017-05-10T02:40:17.017Z,0
2017-05-10T02:41:17.330Z,0
2017-05-10T02:42:16.730Z,0
2017-05-10T02:43:17.347Z,0
2017-05-10T02:44:17.346Z,0
2017-05-10T02:45:17.090Z,0
2017-05-10T02:46:16.743Z,0
2017-05-10T02:47:17.054Z,0
2017-05-10T02:48:16.498Z,0
2017-05-10T02:49:17.071Z,0
2017-05-10T02:50:17.179Z,0
2017-05-10T02:51:17.437Z,0
2017-05-10T02:52:17.142Z,0
2017-05-10T02:53:17.405Z,0
2017-05-10T02:54:17.097Z,0
2017-05-10T02:55:17.412Z,0
2017-05-10T02:56:17.107Z,0
2017-05-10T02:57:17.476Z,0
2017-05-10T02:58:17.172Z,0
2017-05-10T02:59:17.175Z,0
2017-05-10T03:00:17.133Z,0
2017-05-10T03:01:17.141Z,0
2017-05-10T03:02:17.196Z,0
2017-05-10T03:03:17.458Z,0
2017-05-10T03:04:17.153Z,0
2017-05-10T03:05:17.524Z,0
2017-05-10T03:06:17.525Z,0
2017-05-10T03:07:17.174Z,0
2017-05-10T03:08:17.492Z,0
2017-05-10T03:09:17.188Z,0
2017-05-10T03:10:17.243Z,0
2017-05-10T03:11:17.565Z,0
2017-05-10T03:12:17.513Z,0
2017-05-10T03:13:17.261Z,0
2017-05-10T03:14:17.217Z,0
2017-05-10T03:15:17.218Z,0
2017-05-10T03:16:16.968Z,0
2017-05-10T03:17:17.283Z,0
2017-05-10T03:18:17.235Z,0
2017-05-10T03:19:17.245Z,0
2017-05-10T03:20:16.974Z,0
2017-05-10T03:21:16.992Z,0
2017-05-10T03:22:17.305Z,0
2017-05-10T03:23:17.279Z,0
2017-05-10T03:24:17.584Z,0
2017-05-10T03:25:17.592Z,0
2017-05-10T03:26:17.335Z,0
2017-05-10T03:27:17.040Z,0
2017-05-10T03:28:17.350Z,0
2017-05-10T03:29:17.357Z,0
2017-05-10T03:30:17.657Z,0
2017-05-10T03:31:17.363Z,0
2017-05-10T03:32:17.644Z,0
2017-05-10T03:33:17.329Z,0
2017-05-10T03:34:17.020Z,0
2017-05-10T03:35:17.437Z,0
2017-05-10T03:36:17.030Z,0
2017-05-10T03:37:17.035Z,0
2017-05-10T03:38:17.360Z,0
2017-05-10T03:39:17.675Z,0
2017-05-10T03:40:17.373Z,0
2017-05-10T03:41:17.685Z,0
2017-05-10T03:42:17.106Z,0
2017-05-10T03:43:17.131Z,0
2017-05-10T03:44:17.391Z,0
2017-05-10T03:45:17.403Z,0
2017-05-10T03:46:17.717Z,0
2017-05-10T03:47:17.474Z,0
2017-05-10T03:48:17.469Z,0
2017-05-10T03:49:17.843Z,0
2017-05-10T03:50:17.426Z,0
2017-05-10T03:51:16.815Z,0
2017-05-10T03:52:17.134Z,0
2017-05-10T03:53:17.139Z,0
2017-05-10T03:54:17.761Z,0
2017-05-10T03:55:17.775Z,0
2017-05-10T03:56:17.187Z,0
2017-05-10T03:57:17.512Z,0
2017-05-10T03:58:17.832Z,5
2017-05-10T03:59:17.224Z,5
2017-05-10T04:00:17.808Z,5
2017-05-10T04:01:17.543Z,5
2017-05-10T04:02:17.506Z,5
2017-05-10T04:03:17.814Z,5
2017-05-10T04:04:17.295Z,5
2017-05-10T04:05:17.602Z,5
2017-05-10T04:06:17.848Z,5
2017-05-10T04:07:16.950Z,5
2017-05-10T04:08:17.536Z,5
2017-05-10T04:09:17.590Z,5
2017-05-10T04:10:17.543Z,5
2017-05-10T04:11:17.247Z,5
2017-05-10T04:12:17.244Z,5
2017-05-10T04:13:17.882Z,5
2017-05-10T04:14:17.939Z,5
2017-05-10T04:15:17.885Z,10
2017-05-10T04:16:17.581Z,10
2017-05-10T04:17:17.589Z,10
2017-05-10T04:18:17.940Z,10
2017-05-10T04:19:17.598Z,10
2017-05-10T04:20:17.604Z,10
2017-05-10T04:21:18.271Z,10
2017-05-10T04:22:17.977Z,10
2017-05-10T04:23:18.295Z,10
2017-05-10T04:24:17.945Z,15
2017-05-10T04:25:17.721Z,10
2017-05-10T04:26:17.679Z,10
2017-05-10T04:27:17.695Z,15
2017-05-10T04:28:17.700Z,15
2017-05-10T04:29:17.495Z,15
2017-05-10T04:30:17.354Z,20
2017-05-10T04:31:17.671Z,20
2017-05-10T04:32:16.741Z,25
2017-05-10T04:33:17.992Z,30
2017-05-10T04:34:17.995Z,35
2017-05-10T04:35:17.697Z,35
2017-05-10T04:36:18.057Z,40
2017-05-10T04:37:18.013Z,35
2017-05-10T04:38:17.708Z,30
2017-05-10T04:39:17.408Z,35
2017-05-10T04:40:17.782Z,35
2017-05-10T04:41:17.418Z,35
2017-05-10T04:42:17.480Z,40
2017-05-10T04:43:17.168Z,45
2017-05-10T04:44:18.061Z,45
2017-05-10T04:45:17.752Z,50
2017-05-10T04:46:18.118Z,60
2017-05-10T04:47:17.829Z,75
2017-05-10T04:48:17.779Z,80
2017-05-10T04:49:17.782Z,80
2017-05-10T04:50:17.788Z,85
2017-05-10T04:51:17.791Z,85
2017-05-10T04:52:17.280Z,90
2017-05-10T04:53:18.165Z,100
2017-05-10T04:54:18.125Z,105
2017-05-10T04:55:18.129Z,105
2017-05-10T04:56:17.544Z,110
2017-05-10T04:57:17.828Z,115
2017-05-10T04:58:17.537Z,120
2017-05-10T04:59:17.950Z,125
2017-05-10T05:00:17.950Z,100
2017-05-10T05:01:17.549Z,105
2017-05-10T05:02:18.175Z,100
2017-05-10T05:03:18.179Z,90
2017-05-10T05:04:18.198Z,110
2017-05-10T05:05:18.198Z,130
2017-05-10T05:06:17.272Z,130
2017-05-10T05:07:18.211Z,130
2017-05-10T05:08:17.951Z,155
2017-05-10T05:09:17.966Z,145
2017-05-10T05:10:18.273Z,130
2017-05-10T05:11:18.239Z,125
2017-05-10T05:12:18.344Z,145
2017-05-10T05:13:18.252Z,150
2017-05-10T05:14:17.639Z,170
2017-05-10T05:15:17.637Z,185
2017-05-10T05:16:18.319Z,205
2017-05-10T05:17:18.284Z,210
2017-05-10T05:18:18.341Z,210
2017-05-10T05:19:18.033Z,210
2017-05-10T05:20:18.353Z,210
2017-05-10T05:21:17.994Z,215
2017-05-10T05:22:17.691Z,220
2017-05-10T05:23:18.063Z,225
2017-05-10T05:24:18.420Z,220
2017-05-10T05:25:18.335Z,225
2017-05-10T05:26:18.032Z,235
2017-05-10T05:27:18.355Z,245
2017-05-10T05:28:18.412Z,250
2017-05-10T05:29:17.473Z,210
2017-05-10T05:30:18.108Z,180
2017-05-10T05:31:18.390Z,270
2017-05-10T05:32:18.078Z,275
2017-05-10T05:33:18.398Z,280
2017-05-10T05:34:18.451Z,285
2017-05-10T05:35:18.411Z,290
2017-05-10T05:36:18.158Z,295
2017-05-10T05:37:18.477Z,305
2017-05-10T05:38:18.437Z,305
2017-05-10T05:39:18.130Z,280
2017-05-10T05:40:17.834Z,235
2017-05-10T05:41:18.195Z,325
2017-05-10T05:42:18.203Z,320
2017-05-10T05:43:18.170Z,320
2017-05-10T05:44:18.170Z,295
2017-05-10T05:45:18.497Z,270
2017-05-10T05:46:18.600Z,310
2017-05-10T05:47:17.938Z,300
2017-05-10T05:48:18.513Z,265
2017-05-10T05:49:17.956Z,280
2017-05-10T05:50:18.593Z,315
2017-05-10T05:51:18.290Z,295
2017-05-10T05:52:18.293Z,320
2017-05-10T05:53:18.244Z,360
2017-05-10T05:54:18.568Z,355
2017-05-10T05:55:18.263Z,325
2017-05-10T05:56:18.266Z,340
2017-05-10T05:57:18.585Z,390
2017-05-10T05:58:18.374Z,380
2017-05-10T05:59:18.658Z,370
2017-05-10T06:00:18.612Z,375
2017-05-10T06:01:18.360Z,400
2017-05-10T06:02:18.424Z,425
2017-05-10T06:03:18.690Z,425
2017-05-10T06:04:18.073Z,420
2017-05-10T06:05:18.343Z,425
2017-05-10T06:06:18.138Z,445
2017-05-10T06:07:18.718Z,400
2017-05-10T06:08:18.058Z,475
2017-05-10T06:09:18.067Z,490
2017-05-10T06:10:18.744Z,505
2017-05-10T06:11:18.390Z,495
2017-05-10T06:12:18.401Z,450
2017-05-10T06:13:18.721Z,435
2017-05-10T06:14:18.418Z,450
2017-05-10T06:15:18.737Z,475
2017-05-10T06:16:17.865Z,500
2017-05-10T06:17:18.788Z,510
2017-05-10T06:18:18.511Z,535
2017-05-10T06:19:18.151Z,540
2017-05-10T06:20:18.885Z,535
2017-05-10T06:21:18.485Z,520
2017-05-10T06:22:18.183Z,515
2017-05-10T06:23:18.870Z,505
2017-05-10T06:24:18.567Z,490
2017-05-10T06:25:18.835Z,485
2017-05-10T06:26:18.532Z,505
2017-05-10T06:27:18.279Z,540
2017-05-10T06:28:19.208Z,560
2017-05-10T06:29:18.565Z,565
2017-05-10T06:30:18.880Z,575
2017-05-10T06:31:18.893Z,585
2017-05-10T06:32:18.587Z,585
2017-05-10T06:33:18.594Z,555
2017-05-10T06:34:19.021Z,565
2017-05-10T06:35:18.624Z,585
2017-05-10T06:36:18.317Z,625
2017-05-10T06:37:19.029Z,625
2017-05-10T06:38:18.654Z,635
2017-05-10T06:39:18.967Z,640
2017-05-10T06:40:18.980Z,625
2017-05-10T06:41:18.989Z,640
2017-05-10T06:42:19.001Z,660
2017-05-10T06:43:19.072Z,660
2017-05-10T06:44:18.453Z,670
2017-05-10T06:45:18.407Z,670
2017-05-10T06:46:18.732Z,675
2017-05-10T06:47:19.047Z,655
2017-05-10T06:48:18.750Z,640
2017-05-10T06:49:18.763Z,645
2017-05-10T06:50:18.151Z,685
2017-05-10T06:51:18.834Z,710
2017-05-10T06:52:18.792Z,690
2017-05-10T06:53:18.796Z,650
2017-05-10T06:54:18.861Z,640
2017-05-10T06:55:18.869Z,700
2017-05-10T06:56:19.145Z,705
2017-05-10T06:57:18.530Z,755
2017-05-10T06:58:18.852Z,685
2017-05-10T06:59:19.271Z,620
2017-05-10T07:00:19.281Z,680
2017-05-10T07:01:19.197Z,760
2017-05-10T07:02:18.900Z,755
2017-05-10T07:03:18.948Z,745
2017-05-10T07:04:18.969Z,735
2017-05-10T07:05:19.225Z,725
2017-05-10T07:06:19.562Z,765
2017-05-10T07:07:19.307Z,810
2017-05-10T07:08:19.341Z,815
2017-05-10T07:09:18.971Z,810
2017-05-10T07:10:19.395Z,805
2017-05-10T07:11:19.291Z,815
2017-05-10T07:12:19.320Z,835
2017-05-10T07:13:19.019Z,830
2017-05-10T07:14:19.335Z,745
2017-05-10T07:15:19.076Z,715
2017-05-10T07:16:19.093Z,755
2017-05-10T07:17:19.104Z,785
2017-05-10T07:18:19.072Z,855
2017-05-10T07:19:19.082Z,870
2017-05-10T07:20:19.403Z,855
2017-05-10T07:21:19.459Z,865
2017-05-10T07:22:19.115Z,825
2017-05-10T07:23:19.430Z,565
2017-05-10T07:24:19.453Z,215
2017-05-10T07:25:18.881Z,100
2017-05-10T07:26:19.153Z,95
2017-05-10T07:28:19.536Z,95
2017-05-10T07:29:19.611Z,95
2017-05-10T07:30:19.557Z,90
2017-05-10T07:31:19.510Z,90
2017-05-10T07:32:19.525Z,90
2017-05-10T07:33:19.589Z,90
2017-05-10T07:34:19.228Z,90
2017-05-10T07:35:19.604Z,90
2017-05-10T07:36:18.981Z,90
2017-05-10T07:37:19.921Z,90
2017-05-10T07:38:19.261Z,85
2017-05-10T07:39:19.666Z,85
2017-05-10T07:40:19.286Z,85
2017-05-10T07:41:19.293Z,85
2017-05-10T07:42:18.983Z,85
2017-05-10T07:43:19.352Z,85
2017-05-10T07:44:19.045Z,85
2017-05-10T07:45:19.315Z,80
2017-05-10T07:46:19.065Z,80
2017-05-10T07:47:19.641Z,80
2017-05-10T07:48:19.649Z,80
2017-05-10T07:49:19.348Z,80
2017-05-10T07:50:19.672Z,80
2017-05-10T07:51:19.814Z,80
2017-05-10T07:52:19.059Z,80
2017-05-10T07:53:19.390Z,80
2017-05-10T07:54:19.705Z,80
2017-05-10T07:55:19.398Z,80
2017-05-10T07:56:19.417Z,80
2017-05-10T07:57:19.403Z,80
2017-05-10T07:58:19.425Z,80
2017-05-10T07:59:19.741Z,80
2017-05-10T08:00:19.787Z,80
2017-05-10T08:01:19.135Z,80
2017-05-10T08:02:19.497Z,80
2017-05-10T08:03:19.765Z,80
2017-05-10T08:04:19.511Z,80
2017-05-10T08:05:19.837Z,80
2017-05-10T08:06:19.174Z,75
2017-05-10T08:07:19.524Z,75
2017-05-10T08:08:19.498Z,75
2017-05-10T08:09:19.897Z,75
2017-05-10T08:10:19.851Z,75
2017-05-10T08:11:19.513Z,75
2017-05-10T08:12:19.527Z,75
2017-05-10T08:13:19.530Z,75
2017-05-10T08:14:19.590Z,75
2017-05-10T08:15:19.906Z,75
2017-05-10T08:16:19.864Z,75
2017-05-10T08:17:19.871Z,75
2017-05-10T08:18:19.665Z,75
2017-05-10T08:19:19.889Z,75
2017-05-10T08:20:19.268Z,75
2017-05-10T08:21:19.896Z,75
2017-05-10T08:22:19.289Z,75
2017-05-10T08:23:19.612Z,75
2017-05-10T08:24:19.608Z,75
2017-05-10T08:25:19.931Z,75
2017-05-10T08:26:20.033Z,70
2017-05-10T08:27:19.990Z,70
2017-05-10T08:28:19.694Z,70
2017-05-10T08:29:19.698Z,70
2017-05-10T08:30:19.966Z,75
2017-05-10T08:31:19.971Z,75
2017-05-10T08:32:19.360Z,75
2017-05-10T08:33:19.730Z,75
2017-05-10T08:34:19.115Z,75
2017-05-10T08:35:19.741Z,75
2017-05-10T08:36:19.701Z,75
2017-05-10T08:37:20.017Z,75
2017-05-10T08:38:19.141Z,75
2017-05-10T08:39:20.083Z,75
2017-05-10T08:40:20.090Z,75
2017-05-10T08:41:20.044Z,75
2017-05-10T08:42:19.744Z,75
2017-05-10T08:43:20.117Z,75
2017-05-10T08:44:19.757Z,80
2017-05-10T08:45:19.765Z,80
2017-05-10T08:46:19.776Z,80
2017-05-10T08:47:19.780Z,85
2017-05-10T08:48:20.101Z,85
2017-05-10T08:49:20.103Z,85
2017-05-10T08:50:20.121Z,85
2017-05-10T08:51:20.126Z,85
2017-05-10T08:52:19.889Z,85
2017-05-10T08:53:19.258Z,90
2017-05-10T08:54:20.191Z,90
2017-05-10T08:55:19.840Z,90
2017-05-10T08:56:19.946Z,90
2017-05-10T08:57:20.163Z,90
2017-05-10T08:58:20.169Z,90
2017-05-10T08:59:19.921Z,90
2017-05-10T09:00:19.301Z,90
2017-05-10T09:01:20.194Z,90
2017-05-10T09:02:19.945Z,90
2017-05-10T09:03:19.585Z,90
2017-05-10T09:04:19.903Z,90
2017-05-10T09:05:19.290Z,90
2017-05-10T09:06:19.610Z,90
2017-05-10T09:07:19.927Z,90
2017-05-10T09:08:20.258Z,90
2017-05-10T09:09:20.301Z,90
2017-05-10T09:10:20.258Z,90
2017-05-10T09:11:20.003Z,90
2017-05-10T09:12:19.964Z,90
2017-05-10T09:13:20.033Z,90
2017-05-10T09:14:20.031Z,85
2017-05-10T09:15:19.673Z,85
2017-05-10T09:16:19.731Z,85
2017-05-10T09:17:19.687Z,85
2017-05-10T09:18:19.389Z,85
2017-05-10T09:19:20.326Z,85
2017-05-10T09:20:20.384Z,85
2017-05-10T09:21:19.779Z,85
2017-05-10T09:22:19.737Z,80
2017-05-10T09:23:19.733Z,80
2017-05-10T09:24:20.410Z,80
2017-05-10T09:25:20.058Z,80
2017-05-10T09:26:20.113Z,80
2017-05-10T09:27:20.076Z,80
2017-05-10T09:28:20.080Z,80
2017-05-10T09:29:20.086Z,80
2017-05-10T09:30:20.098Z,80
2017-05-10T09:31:20.109Z,80
2017-05-10T09:32:20.474Z,80
2017-05-10T09:33:20.171Z,80
2017-05-10T09:34:20.122Z,80
2017-05-10T09:35:20.446Z,80
2017-05-10T09:36:19.518Z,80
2017-05-10T09:37:20.148Z,80
2017-05-10T09:38:20.170Z,80
2017-05-10T09:39:20.161Z,75
2017-05-10T09:40:20.486Z,75
2017-05-10T09:41:20.179Z,75
2017-05-10T09:42:20.495Z,75
2017-05-10T09:43:20.508Z,75
2017-05-10T09:44:19.946Z,75
2017-05-10T09:45:20.569Z,75
2017-05-10T09:46:19.961Z,75
2017-05-10T09:47:19.911Z,75
2017-05-10T09:48:20.236Z,75
2017-05-10T09:49:20.240Z,75
2017-05-10T09:50:20.247Z,75
2017-05-10T09:51:20.044Z,75
2017-05-10T09:52:20.313Z,75
2017-05-10T09:53:20.632Z,75
2017-05-10T09:54:20.327Z,75
2017-05-10T09:55:20.598Z,75
2017-05-10T09:56:20.605Z,75
2017-05-10T09:57:20.040Z,75
2017-05-10T09:58:20.668Z,75
2017-05-10T09:59:20.631Z,75
2017-05-10T10:00:20.373Z,75
2017-05-10T10:01:20.067Z,75
2017-05-10T10:02:20.072Z,75
2017-05-10T10:03:20.340Z,75
2017-05-10T10:04:20.662Z,75
2017-05-10T10:05:20.102Z,75
2017-05-10T10:06:20.057Z,75
2017-05-10T10:07:20.684Z,70
2017-05-10T10:08:20.746Z,70
2017-05-10T10:09:20.705Z,75
2017-05-10T10:10:20.397Z,70
2017-05-10T10:11:20.145Z,75
2017-05-10T10:12:19.792Z,70
2017-05-10T10:13:20.724Z,70
2017-05-10T10:14:20.111Z,70
2017-05-10T10:15:20.746Z,70
2017-05-10T10:16:19.876Z,70
2017-05-10T10:17:20.446Z,70
2017-05-10T10:18:20.505Z,70
2017-05-10T10:19:20.151Z,70
2017-05-10T10:20:20.522Z,70
2017-05-10T10:21:20.478Z,70
2017-05-10T10:22:20.542Z,70
2017-05-10T10:23:20.804Z,70
2017-05-10T10:24:20.818Z,70
2017-05-10T10:25:20.925Z,70
2017-05-10T10:26:20.566Z,70
2017-05-10T10:27:20.522Z,70
2017-05-10T10:28:20.222Z,70
2017-05-10T10:29:20.532Z,70
2017-05-10T10:30:20.549Z,70
2017-05-10T10:31:20.602Z,70
2017-05-10T10:32:20.873Z,70
2017-05-10T10:33:20.565Z,70
2017-05-10T10:34:20.575Z,70
2017-05-10T10:35:20.902Z,70
2017-05-10T10:36:20.640Z,65
2017-05-10T10:37:20.972Z,70
2017-05-10T10:38:20.654Z,70
2017-05-10T10:39:20.614Z,65
2017-05-10T10:40:20.719Z,70
2017-05-10T10:41:20.987Z,65
2017-05-10T10:42:20.636Z,65
2017-05-10T10:43:20.947Z,65
2017-05-10T10:44:20.702Z,65
2017-05-10T10:45:20.969Z,65
2017-05-10T10:46:20.411Z,65
2017-05-10T10:47:20.667Z,65
2017-05-10T10:48:20.683Z,65
2017-05-10T10:49:21.000Z,65
2017-05-10T10:50:20.695Z,65
2017-05-10T10:51:21.011Z,65
2017-05-10T10:52:20.402Z,65
2017-05-10T10:53:20.404Z,65
2017-05-10T10:54:20.730Z,65
2017-05-10T10:55:20.779Z,65
2017-05-10T10:56:20.429Z,65
2017-05-10T10:57:20.742Z,65
2017-05-10T10:58:20.765Z,60
2017-05-10T10:59:21.071Z,60
2017-05-10T11:00:21.112Z,60
2017-05-10T11:01:20.469Z,60
2017-05-10T11:02:20.522Z,60
2017-05-10T11:03:20.476Z,60
2017-05-10T11:04:20.232Z,60
2017-05-10T11:05:21.120Z,60
2017-05-10T11:06:20.240Z,60
2017-05-10T11:07:20.508Z,60
2017-05-10T11:08:20.838Z,60
2017-05-10T11:09:20.830Z,60
2017-05-10T11:10:20.582Z,60
2017-05-10T11:11:20.852Z,60
2017-05-10T11:12:21.167Z,60
2017-05-10T11:13:21.257Z,60
2017-05-10T11:14:20.875Z,60
2017-05-10T11:15:21.244Z,60
2017-05-10T11:16:21.194Z,60
2017-05-10T11:17:20.927Z,60
2017-05-10T11:18:20.954Z,60
2017-05-10T11:19:20.906Z,60
2017-05-10T11:20:20.711Z,60
2017-05-10T11:21:21.027Z,60
2017-05-10T11:22:21.351Z,60
2017-05-10T11:23:21.354Z,60
2017-05-10T11:24:20.936Z,60
2017-05-10T11:25:20.643Z,55
2017-05-10T11:26:21.331Z,45
2017-05-10T11:27:21.330Z,55
2017-05-10T11:28:20.770Z,55
2017-05-10T11:29:21.092Z,55
2017-05-10T11:30:20.679Z,55
2017-05-10T11:31:21.358Z,55
2017-05-10T11:32:21.376Z,55
2017-05-10T11:33:21.338Z,55
2017-05-10T11:34:21.074Z,55
2017-05-10T11:35:21.026Z,55
2017-05-10T11:36:21.432Z,55
2017-05-10T11:37:21.400Z,55
2017-05-10T11:38:21.069Z,55
2017-05-10T11:39:21.056Z,55
2017-05-10T11:40:21.125Z,55
2017-05-10T11:41:21.071Z,55
2017-05-10T11:42:21.397Z,55
2017-05-10T11:43:21.402Z,55
2017-05-10T11:44:20.786Z,55
2017-05-10T11:45:21.102Z,55
2017-05-10T11:46:20.799Z,55
2017-05-10T11:47:20.863Z,55
2017-05-10T11:48:21.124Z,55
2017-05-10T11:49:21.492Z,55
2017-05-10T11:50:21.139Z,55
2017-05-10T11:51:21.154Z,55
2017-05-10T11:52:20.894Z,55
2017-05-10T11:53:21.174Z,55
2017-05-10T11:54:21.175Z,55
2017-05-10T11:55:20.873Z,50
2017-05-10T11:56:21.523Z,50
2017-05-10T11:57:21.246Z,50
2017-05-10T11:58:21.208Z,50
2017-05-10T11:59:20.947Z,50
2017-05-10T12:00:21.268Z,50
2017-05-10T12:01:20.966Z,50
2017-05-10T12:02:21.546Z,50
2017-05-10T12:03:20.937Z,50
2017-05-10T12:04:21.251Z,50
2017-05-10T12:05:21.616Z,50
2017-05-10T12:06:21.628Z,50
2017-05-10T12:07:20.642Z,50
2017-05-10T12:08:21.275Z,50
2017-05-10T12:09:20.973Z,50
2017-05-10T12:10:20.667Z,50
2017-05-10T12:11:21.613Z,50
2017-05-10T12:12:21.723Z,50
2017-05-10T12:13:21.632Z,45
2017-05-10T12:14:21.313Z,45
2017-05-10T12:15:20.705Z,45
2017-05-10T12:16:21.388Z,45
2017-05-10T12:17:21.340Z,45
2017-05-10T12:18:21.347Z,45
2017-05-10T12:19:21.045Z,45
2017-05-10T12:20:21.414Z,45
2017-05-10T12:21:21.380Z,45
2017-05-10T12:22:21.073Z,45
2017-05-10T12:23:21.488Z,45
2017-05-10T12:24:21.783Z,45
2017-05-10T12:25:21.237Z,45
2017-05-10T12:26:21.717Z,45
2017-05-10T12:27:21.461Z,45
2017-05-10T12:28:21.793Z,45
2017-05-10T12:29:21.431Z,45
2017-05-10T12:30:21.435Z,45
2017-05-10T12:31:21.500Z,45
2017-05-10T12:32:21.763Z,45
2017-05-10T12:33:21.453Z,45
2017-05-10T12:34:21.778Z,45
2017-05-10T12:35:21.784Z,40
2017-05-10T12:36:21.225Z,40
2017-05-10T12:37:21.230Z,40
2017-05-10T12:38:21.857Z,40
2017-05-10T12:39:20.931Z,30
2017-05-10T12:40:21.869Z,40
2017-05-10T12:41:20.589Z,40
2017-05-10T12:42:21.572Z,40
2017-05-10T12:43:21.587Z,40
2017-05-10T12:44:21.903Z,40
2017-05-10T12:45:21.550Z,40
2017-05-10T12:46:21.656Z,40
2017-05-10T12:47:21.611Z,40
2017-05-10T12:48:21.668Z,40
2017-05-10T12:49:21.625Z,40
2017-05-10T12:50:21.907Z,40
2017-05-10T12:51:21.015Z,40
2017-05-10T12:52:21.593Z,40
2017-05-10T12:53:21.387Z,40
2017-05-10T12:54:22.973Z,40
2017-05-10T12:55:21.667Z,40
2017-05-10T12:56:21.729Z,40
2017-05-10T12:57:21.994Z,40
2017-05-10T12:58:22.018Z,40
2017-05-10T12:59:21.383Z,40
2017-05-10T13:00:22.019Z,35
2017-05-10T13:01:21.043Z,35
2017-05-10T13:02:22.077Z,35
2017-05-10T13:03:22.042Z,35
2017-05-10T13:04:21.370Z,35
2017-05-10T13:05:22.005Z,35
2017-05-10T13:06:21.388Z,35
2017-05-10T13:07:22.016Z,35
2017-05-10T13:08:21.761Z,35
2017-05-10T13:09:21.774Z,35
2017-05-10T13:10:22.139Z,35
2017-05-10T13:11:22.042Z,35
2017-05-10T13:12:21.761Z,35
2017-05-10T13:13:21.752Z,35
2017-05-10T13:14:22.064Z,35
2017-05-10T13:15:22.077Z,35
2017-05-10T13:16:22.128Z,35
2017-05-10T13:17:21.787Z,35
2017-05-10T13:18:21.795Z,35
2017-05-10T13:19:21.484Z,35
2017-05-10T13:20:21.585Z,35
2017-05-10T13:21:21.862Z,35
2017-05-10T13:22:22.133Z,35
2017-05-10T13:23:22.130Z,35
2017-05-10T13:24:22.139Z,35
2017-05-10T13:25:22.204Z,35
2017-05-10T13:26:21.891Z,35
2017-05-10T13:27:21.742Z,35
2017-05-10T13:28:21.963Z,35
2017-05-10T13:29:21.865Z,35
2017-05-10T13:30:21.926Z,35
2017-05-10T13:31:21.931Z,35
2017-05-10T13:32:22.247Z,35
2017-05-10T13:33:21.898Z,35
2017-05-10T13:34:21.635Z,35
2017-05-10T13:35:21.641Z,35
2017-05-10T13:36:21.700Z,35
2017-05-10T13:37:22.236Z,35
2017-05-10T13:38:21.620Z,35
2017-05-10T13:39:22.250Z,35
2017-05-10T13:40:22.257Z,35
2017-05-10T13:41:22.264Z,30
2017-05-10T13:42:21.650Z,35
2017-05-10T13:43:21.756Z,35
2017-05-10T13:44:22.022Z,35
2017-05-10T13:45:21.983Z,35
2017-05-10T13:46:21.988Z,35
2017-05-10T13:47:22.293Z,35
2017-05-10T13:48:22.311Z,35
2017-05-10T13:49:22.317Z,30
2017-05-10T13:50:21.705Z,35
2017-05-10T13:51:22.025Z,30
2017-05-10T13:52:22.339Z,30
2017-05-10T13:53:22.035Z,30
2017-05-10T13:54:21.731Z,30
2017-05-10T13:55:22.363Z,30
2017-05-10T13:56:22.059Z,30
2017-05-10T13:57:22.116Z,35
2017-05-10T13:58:22.490Z,30
2017-05-10T13:59:22.132Z,30
2017-05-10T14:00:22.406Z,30
2017-05-10T14:01:22.410Z,30
2017-05-10T14:02:22.464Z,30
2017-05-10T14:03:22.467Z,30
2017-05-10T14:04:22.115Z,30
2017-05-10T14:05:22.125Z,30
2017-05-10T14:06:21.920Z,30
2017-05-10T14:07:22.139Z,30
2017-05-10T14:08:22.555Z,30
2017-05-10T14:09:22.160Z,30
2017-05-10T14:10:22.523Z,30
2017-05-10T14:11:22.172Z,30
2017-05-10T14:12:22.203Z,30
2017-05-10T14:13:22.549Z,30
2017-05-10T14:14:22.500Z,30
2017-05-10T14:15:22.506Z,30
2017-05-10T14:16:22.250Z,30
2017-05-10T14:17:22.583Z,30
2017-05-10T14:18:22.272Z,30
2017-05-10T14:19:21.915Z,30
2017-05-10T14:20:22.556Z,30